createdAt,value
2018-03-01T00:01:35.355Z,15.73
2018-03-01T00:04:02.935Z,15.47
2018-03-01T00:06:30.617Z,13.80
2018-03-01T00:08:58.147Z,15.27
2018-03-01T00:11:25.767Z,14.73
2018-03-01T00:13:53.378Z,15.40
2018-03-01T00:16:21.022Z,13.67
2018-03-01T00:18:48.587Z,14.60
2018-03-01T00:21:16.171Z,13.70
2018-03-01T00:23:43.715Z,14.10
2018-03-01T00:26:11.360Z,16.53
2018-03-01T00:28:38.893Z,14.03
2018-03-01T00:31:06.520Z,15.27
2018-03-01T00:33:34.080Z,15.10
2018-03-01T00:36:01.708Z,13.80
2018-03-01T00:38:29.261Z,14.00
2018-03-01T00:40:56.840Z,14.60
2018-03-01T00:43:24.329Z,14.43
2018-03-01T00:45:51.945Z,14.87
2018-03-01T00:48:19.427Z,14.13
2018-03-01T00:50:46.997Z,13.83
2018-03-01T00:53:14.534Z,13.87
2018-03-01T00:55:42.122Z,15.97
2018-03-01T00:58:09.786Z,15.73
2018-03-01T01:00:37.428Z,15.40
2018-03-01T01:03:05.080Z,14.13
2018-03-01T01:05:32.664Z,14.27
2018-03-01T01:08:00.269Z,15.30
2018-03-01T01:10:27.883Z,15.50
2018-03-01T01:12:55.490Z,13.57
2018-03-01T01:15:23.123Z,14.97
2018-03-01T01:17:50.747Z,13.23
2018-03-01T01:20:18.324Z,14.50
2018-03-01T01:22:45.963Z,14.70
2018-03-01T01:25:13.673Z,12.43
2018-03-01T01:27:41.177Z,12.07
2018-03-01T01:30:08.692Z,13.40
2018-03-01T01:32:36.264Z,14.63
2018-03-01T01:35:03.860Z,13.67
2018-03-01T01:37:31.489Z,14.13
2018-03-01T01:39:59.202Z,13.07
2018-03-01T01:42:26.814Z,13.53
2018-03-01T01:44:54.659Z,12.93
2018-03-01T01:47:22.186Z,13.47
2018-03-01T01:49:49.949Z,14.60
2018-03-01T01:52:17.496Z,14.30
2018-03-01T01:54:45.290Z,11.20
2018-03-01T01:57:12.824Z,14.70
2018-03-01T01:59:40.487Z,13.40
2018-03-01T02:02:08.168Z,15.10
2018-03-01T02:04:35.714Z,12.20
2018-03-01T02:07:03.410Z,12.97
2018-03-01T02:09:31.038Z,14.17
2018-03-01T02:11:58.625Z,14.07
2018-03-01T02:14:26.266Z,13.20
2018-03-01T02:16:53.883Z,11.53
2018-03-01T02:19:21.403Z,14.40
2018-03-01T02:21:49.136Z,14.13
2018-03-01T02:24:16.662Z,14.50
2018-03-01T02:26:44.276Z,12.80
2018-03-01T02:29:11.815Z,13.30
2018-03-01T02:31:39.319Z,13.17
2018-03-01T02:34:06.857Z,12.07
2018-03-01T02:36:34.430Z,12.53
2018-03-01T02:39:01.982Z,14.10
2018-03-01T02:41:29.544Z,14.80
2018-03-01T02:43:57.146Z,12.40
2018-03-01T02:46:24.751Z,15.30
2018-03-01T02:48:52.396Z,12.87
2018-03-01T02:51:19.927Z,13.03
2018-03-01T02:53:47.493Z,9.73
2018-03-01T02:56:15.121Z,12.80
2018-03-01T02:58:42.774Z,13.80
2018-03-01T03:01:10.318Z,13.83
2018-03-01T03:03:37.863Z,15.17
2018-03-01T03:06:05.433Z,12.97
2018-03-01T03:08:33.082Z,13.23
2018-03-01T03:11:00.682Z,12.57
2018-03-01T03:13:28.247Z,12.80
2018-03-01T03:15:55.804Z,12.63
2018-03-01T03:18:23.463Z,13.93
2018-03-01T03:20:50.996Z,11.83
2018-03-01T03:23:18.743Z,13.53
2018-03-01T03:25:46.254Z,11.77
2018-03-01T03:28:13.885Z,12.33
2018-03-01T03:30:41.412Z,10.40
2018-03-01T03:33:08.956Z,13.47
2018-03-01T03:35:36.498Z,12.40
2018-03-01T03:38:04.091Z,12.70
2018-03-01T03:40:31.646Z,13.03
2018-03-01T03:42:59.161Z,12.93
2018-03-01T03:45:26.865Z,13.17
2018-03-01T03:47:54.494Z,12.43
2018-03-01T03:50:22.035Z,12.50
2018-03-01T03:52:49.626Z,13.10
2018-03-01T03:55:17.242Z,11.37
2018-03-01T03:57:44.861Z,13.33
2018-03-01T04:00:12.480Z,11.57
2018-03-01T04:02:40.074Z,10.37
2018-03-01T04:05:07.637Z,13.13
2018-03-01T04:07:35.197Z,12.07
2018-03-01T04:10:02.787Z,11.83
2018-03-01T04:12:30.494Z,13.80
2018-03-01T04:14:58.174Z,12.37
2018-03-01T04:17:25.721Z,13.43
2018-03-01T04:19:53.264Z,12.53
2018-03-01T04:22:20.929Z,12.17
2018-03-01T04:24:48.457Z,12.90
2018-03-01T04:27:15.975Z,12.83
2018-03-01T04:29:43.495Z,14.00
2018-03-01T04:32:11.612Z,13.37
2018-03-01T04:34:39.155Z,13.13
2018-03-01T04:37:06.653Z,10.70
2018-03-01T04:39:34.210Z,12.90
2018-03-01T04:42:01.743Z,11.37
2018-03-01T04:44:29.262Z,12.60
2018-03-01T04:46:56.904Z,13.47
2018-03-01T04:49:24.696Z,10.80
2018-03-01T04:51:52.249Z,8.43
2018-03-01T04:54:19.876Z,12.30
2018-03-01T04:56:47.422Z,12.03
2018-03-01T04:59:14.935Z,11.97
2018-03-01T05:01:42.498Z,10.97
2018-03-01T05:04:10.013Z,13.73
2018-03-01T05:06:37.582Z,12.80
2018-03-01T05:09:05.109Z,10.43
2018-03-01T05:11:33.760Z,11.83
2018-03-01T05:14:01.329Z,13.43
2018-03-01T05:16:28.875Z,11.30
2018-03-01T05:18:56.402Z,12.93
2018-03-01T05:21:23.954Z,11.20
2018-03-01T05:23:51.585Z,12.70
2018-03-01T05:26:19.073Z,13.37
2018-03-01T05:28:46.679Z,14.17
2018-03-01T05:31:14.251Z,14.00
2018-03-01T05:33:41.822Z,12.33
2018-03-01T05:36:09.364Z,14.53
2018-03-01T05:38:36.933Z,12.07
2018-03-01T05:41:04.501Z,11.83
2018-03-01T05:43:32.054Z,13.77
2018-03-01T05:45:59.656Z,14.17
2018-03-01T05:48:27.193Z,16.07
2018-03-01T05:50:54.718Z,14.23
2018-03-01T05:53:22.301Z,12.37
2018-03-01T05:55:49.864Z,12.63
2018-03-01T05:58:17.507Z,13.80
2018-03-01T06:00:45.031Z,15.07
2018-03-01T06:03:13.707Z,12.80
2018-03-01T06:05:41.239Z,10.40
2018-03-01T06:08:08.825Z,12.37
2018-03-01T06:10:36.329Z,12.93
2018-03-01T06:13:04.733Z,12.60
2018-03-01T06:15:32.301Z,12.47
2018-03-01T06:17:59.804Z,13.43
2018-03-01T06:20:27.331Z,13.10
2018-03-01T06:22:55.212Z,12.53
2018-03-01T06:25:25.092Z,13.90
2018-03-01T06:27:55.363Z,11.80
2018-03-01T06:30:23.037Z,12.63
2018-03-01T06:32:50.569Z,13.40
2018-03-01T06:35:18.244Z,11.23
2018-03-01T06:37:45.837Z,13.40
2018-03-01T06:40:13.527Z,14.03
2018-03-01T06:42:41.036Z,15.57
2018-03-01T06:45:08.596Z,14.63
2018-03-01T06:47:36.124Z,13.53
2018-03-01T06:50:03.662Z,11.07
2018-03-01T06:52:31.234Z,15.63
2018-03-01T06:54:59.021Z,13.70
2018-03-01T06:57:26.591Z,13.53
2018-03-01T06:59:54.123Z,15.30
2018-03-01T07:02:21.631Z,12.17
2018-03-01T07:04:49.140Z,14.00
2018-03-01T07:07:16.726Z,14.70
2018-03-01T07:09:44.254Z,15.67
2018-03-01T07:12:11.774Z,15.03
2018-03-01T07:14:39.362Z,13.23
2018-03-01T07:17:06.997Z,13.77
2018-03-01T07:19:34.530Z,12.40
2018-03-01T07:22:02.048Z,12.17
2018-03-01T07:24:29.585Z,15.20
2018-03-01T07:26:57.138Z,15.13
2018-03-01T07:29:24.650Z,12.87
2018-03-01T07:31:52.191Z,14.40
2018-03-01T07:34:19.857Z,14.33
2018-03-01T07:36:47.461Z,14.93
2018-03-01T07:39:15.177Z,14.73
2018-03-01T07:41:42.661Z,16.97
2018-03-01T07:44:10.270Z,14.93
2018-03-01T07:46:37.792Z,14.23
2018-03-01T07:49:05.305Z,12.73
2018-03-01T07:51:32.848Z,14.03
2018-03-01T07:54:00.368Z,13.33
2018-03-01T07:56:30.310Z,13.27
2018-03-01T07:58:57.838Z,13.10
2018-03-01T08:01:25.549Z,12.80
2018-03-01T08:03:53.205Z,11.97
2018-03-01T08:06:20.950Z,12.20
2018-03-01T08:08:48.470Z,13.07
2018-03-01T08:11:16.038Z,13.33
2018-03-01T08:13:43.808Z,13.77
2018-03-01T08:16:11.641Z,14.47
2018-03-01T08:18:39.919Z,14.37
2018-03-01T08:21:07.495Z,12.73
2018-03-01T08:23:35.010Z,13.37
2018-03-01T08:26:02.540Z,13.97
2018-03-01T08:28:30.446Z,13.00
2018-03-01T08:30:58.653Z,13.67
2018-03-01T08:33:26.308Z,13.97
2018-03-01T08:36:02.063Z,11.23
2018-03-01T08:38:29.720Z,13.63
2018-03-01T08:40:57.266Z,13.20
2018-03-01T08:43:24.854Z,13.13
2018-03-01T08:45:52.406Z,12.60
2018-03-01T08:48:19.976Z,13.47
2018-03-01T08:50:47.462Z,13.23
2018-03-01T08:53:15.016Z,13.37
2018-03-01T08:55:43.879Z,12.40
2018-03-01T08:58:11.548Z,13.83
2018-03-01T09:00:39.141Z,10.60
2018-03-01T09:03:07.649Z,12.23
2018-03-01T09:05:35.258Z,14.13
2018-03-01T09:08:02.786Z,12.80
2018-03-01T09:10:32.012Z,12.90
2018-03-01T09:13:01.302Z,13.40
2018-03-01T09:15:30.425Z,14.17
2018-03-01T09:17:57.940Z,14.77
2018-03-01T09:20:25.498Z,13.70
2018-03-01T09:22:53.044Z,12.83
2018-03-01T09:25:20.589Z,13.57
2018-03-01T09:27:48.118Z,12.70
2018-03-01T09:30:16.437Z,11.27
2018-03-01T09:32:43.950Z,11.97
2018-03-01T09:35:11.488Z,12.00
2018-03-01T09:37:40.778Z,12.60
2018-03-01T09:40:09.941Z,11.40
2018-03-01T09:42:37.636Z,10.17
2018-03-01T09:45:05.737Z,12.40
2018-03-01T09:47:33.450Z,11.87
2018-03-01T09:50:00.970Z,12.53
2018-03-01T09:52:30.321Z,12.63
2018-03-01T09:54:57.895Z,12.00
2018-03-01T09:57:25.409Z,11.67
2018-03-01T09:59:52.943Z,12.90
2018-03-01T10:02:20.470Z,11.83
2018-03-01T10:04:48.334Z,12.23
2018-03-01T10:07:15.865Z,12.30
2018-03-01T10:09:43.385Z,12.60
2018-03-01T10:12:11.357Z,12.10
2018-03-01T10:14:38.882Z,11.93
2018-03-01T10:17:06.406Z,12.37
2018-03-01T10:19:33.915Z,12.13
2018-03-01T10:22:01.758Z,11.83
2018-03-01T10:24:29.271Z,12.43
2018-03-01T10:26:56.825Z,11.50
2018-03-01T10:29:24.367Z,12.17
2018-03-01T10:31:51.892Z,10.83
2018-03-01T10:34:19.439Z,11.10
2018-03-01T10:36:46.966Z,9.97
2018-03-01T10:39:14.505Z,10.67
2018-03-01T10:41:42.035Z,10.87
2018-03-01T10:44:09.587Z,11.00
2018-03-01T10:46:37.135Z,12.30
2018-03-01T10:49:04.658Z,11.10
2018-03-01T10:51:32.174Z,11.43
2018-03-01T10:53:59.675Z,10.27
2018-03-01T10:56:27.162Z,11.23
2018-03-01T10:58:54.831Z,11.53
2018-03-01T11:01:22.353Z,10.47
2018-03-01T11:03:49.924Z,11.80
2018-03-01T11:06:17.445Z,11.43
2018-03-01T11:08:44.964Z,10.30
2018-03-01T11:11:12.537Z,9.23
2018-03-01T11:13:40.126Z,9.63
2018-03-01T11:16:08.324Z,9.83
2018-03-01T11:18:35.953Z,11.03
2018-03-01T11:21:03.741Z,10.23
2018-03-01T11:23:31.275Z,11.13
2018-03-01T11:25:58.839Z,9.80
2018-03-01T11:28:26.505Z,11.30
2018-03-01T11:30:54.999Z,10.87
2018-03-01T11:33:22.632Z,10.50
2018-03-01T11:35:50.167Z,9.37
2018-03-01T11:38:17.666Z,10.63
2018-03-01T11:40:45.724Z,10.13
2018-03-01T11:43:13.245Z,9.47
2018-03-01T11:45:40.851Z,10.87
2018-03-01T11:48:08.370Z,11.00
2018-03-01T11:50:35.872Z,11.97
2018-03-01T11:53:03.514Z,10.53
2018-03-01T11:55:31.092Z,11.67
2018-03-01T11:57:58.733Z,10.23
2018-03-01T12:00:26.241Z,9.90
2018-03-01T12:02:53.774Z,11.10
2018-03-01T12:05:21.266Z,10.67
2018-03-01T12:07:48.809Z,9.90
2018-03-01T12:10:16.397Z,10.60
2018-03-01T12:12:43.914Z,9.93
2018-03-01T12:15:11.449Z,9.47
2018-03-01T12:17:39.002Z,10.00
2018-03-01T12:20:06.564Z,9.60
2018-03-01T12:22:34.128Z,9.73
2018-03-01T12:25:01.646Z,11.13
2018-03-01T12:27:29.168Z,10.70
2018-03-01T12:29:56.716Z,10.53
2018-03-01T12:32:24.226Z,10.60
2018-03-01T12:34:51.839Z,11.60
2018-03-01T12:37:19.534Z,9.60
2018-03-01T12:39:47.891Z,8.63
2018-03-01T12:42:16.102Z,10.00
2018-03-01T12:44:43.619Z,10.37
2018-03-01T12:47:11.214Z,9.83
2018-03-01T12:49:39.177Z,9.80
2018-03-01T12:52:06.830Z,10.40
2018-03-01T12:54:34.289Z,9.70
2018-03-01T12:57:02.027Z,8.80
2018-03-01T12:59:29.825Z,9.67
2018-03-01T13:01:57.444Z,9.47
2018-03-01T13:04:36.804Z,8.97
2018-03-01T13:07:05.423Z,9.60
2018-03-01T13:09:33.114Z,8.60
2018-03-01T13:12:00.751Z,8.83
2018-03-01T13:14:28.298Z,7.80
2018-03-01T13:16:57.130Z,9.43
2018-03-01T13:19:24.687Z,10.13
2018-03-01T13:21:52.214Z,9.00
2018-03-01T13:24:20.990Z,8.33
2018-03-01T13:26:48.603Z,8.90
2018-03-01T13:29:16.157Z,9.00
2018-03-01T13:32:01.552Z,8.57
2018-03-01T13:37:34.652Z,9.20
2018-03-01T13:40:02.351Z,8.53
2018-03-01T13:42:30.717Z,8.17
2018-03-01T13:44:58.299Z,9.30
2018-03-01T13:47:40.720Z,9.20
2018-03-01T13:50:08.263Z,9.33
2018-03-01T13:52:35.992Z,7.47
2018-03-01T13:55:03.623Z,8.57
2018-03-01T13:57:31.321Z,9.33
2018-03-01T13:59:59.077Z,8.80
2018-03-01T14:02:26.702Z,8.10
2018-03-01T14:04:54.524Z,8.67
2018-03-01T14:07:26.823Z,8.27
2018-03-01T14:09:54.368Z,8.73
2018-03-01T14:12:23.136Z,8.63
2018-03-01T14:14:50.822Z,7.33
2018-03-01T14:17:29.234Z,8.57
2018-03-01T14:19:57.901Z,9.70
2018-03-01T14:22:31.206Z,8.40
2018-03-01T14:24:58.800Z,7.60
2018-03-01T14:27:27.182Z,7.80
2018-03-01T14:30:09.736Z,9.03
2018-03-01T14:32:37.235Z,9.43
2018-03-01T14:35:04.726Z,8.00
2018-03-01T14:37:32.649Z,8.37
2018-03-01T14:40:00.344Z,8.70
2018-03-01T14:42:27.875Z,8.40
2018-03-01T14:44:55.670Z,8.60
2018-03-01T14:47:23.252Z,8.20
2018-03-01T14:49:50.886Z,9.80
2018-03-01T14:52:18.446Z,7.93
2018-03-01T14:54:46.178Z,9.30
2018-03-01T14:57:13.774Z,10.43
2018-03-01T14:59:41.301Z,9.40
2018-03-01T15:02:08.909Z,8.67
2018-03-01T15:04:36.447Z,10.13
2018-03-01T15:07:03.985Z,9.07
2018-03-01T15:09:31.513Z,9.43
2018-03-01T15:11:59.013Z,7.87
2018-03-01T15:14:26.529Z,9.47
2018-03-01T15:16:54.050Z,7.97
2018-03-01T15:19:21.636Z,8.73
2018-03-01T15:21:49.192Z,8.50
2018-03-01T15:24:16.753Z,8.07
2018-03-01T15:26:47.797Z,8.43
2018-03-01T15:29:15.409Z,8.40
2018-03-01T15:31:43.099Z,8.87
2018-03-01T15:34:10.651Z,8.00
2018-03-01T15:36:38.188Z,8.43
2018-03-01T15:39:08.901Z,8.23
2018-03-01T15:41:36.545Z,8.13
2018-03-01T15:44:04.148Z,8.40
2018-03-01T15:46:31.661Z,9.13
2018-03-01T15:48:59.182Z,6.73
2018-03-01T15:51:26.682Z,8.27
2018-03-01T15:53:54.206Z,7.63
2018-03-01T15:56:21.764Z,7.30
2018-03-01T15:58:49.282Z,7.17
2018-03-01T16:01:17.295Z,7.80
2018-03-01T16:03:45.461Z,7.87
2018-03-01T16:06:12.970Z,7.90
2018-03-01T16:08:40.476Z,7.20
2018-03-01T16:11:08.464Z,6.87
2018-03-01T16:13:36.615Z,7.90
2018-03-01T16:16:04.431Z,7.53
2018-03-01T16:18:32.354Z,6.73
2018-03-01T16:20:59.903Z,7.50
2018-03-01T16:23:27.743Z,7.40
2018-03-01T16:25:55.588Z,6.63
2018-03-01T16:28:23.123Z,7.77
2018-03-01T16:30:50.721Z,6.50
2018-03-01T16:33:18.267Z,7.80
2018-03-01T16:35:45.782Z,6.63
2018-03-01T16:38:17.150Z,7.97
2018-03-01T16:40:44.840Z,7.00
2018-03-01T16:43:12.970Z,8.03
2018-03-01T16:45:46.837Z,7.50
2018-03-01T16:48:15.668Z,7.73
2018-03-01T16:50:43.271Z,8.10
2018-03-01T16:53:27.595Z,7.50
2018-03-01T16:55:56.541Z,7.47
2018-03-01T16:58:25.325Z,6.37
2018-03-01T17:00:55.375Z,7.40
2018-03-01T17:03:22.961Z,7.47
2018-03-01T17:05:50.541Z,6.80
2018-03-01T17:08:18.083Z,6.07
2018-03-01T17:10:45.653Z,7.33
2018-03-01T17:13:13.184Z,7.10
2018-03-01T17:15:40.901Z,6.93
2018-03-01T17:18:08.532Z,6.93
2018-03-01T17:20:36.015Z,6.70
2018-03-01T17:23:03.543Z,8.53
2018-03-01T17:25:31.047Z,7.57
2018-03-01T17:27:58.553Z,7.43
2018-03-01T17:30:26.068Z,7.80
2018-03-01T17:32:53.605Z,6.87
2018-03-01T17:35:21.123Z,7.53
2018-03-01T17:37:48.618Z,7.97
2018-03-01T17:40:16.311Z,7.30
2018-03-01T17:42:43.923Z,7.97
2018-03-01T17:45:11.436Z,8.60
2018-03-01T17:47:38.952Z,7.10
2018-03-01T17:50:06.495Z,8.23
2018-03-01T17:52:34.008Z,8.47
2018-03-01T17:55:02.314Z,8.43
2018-03-01T17:57:29.835Z,8.87
2018-03-01T17:59:58.171Z,8.43
2018-03-01T18:02:25.689Z,8.73
2018-03-01T18:04:53.203Z,8.00
2018-03-01T18:07:20.706Z,7.67
2018-03-01T18:09:48.296Z,7.67
2018-03-01T18:12:15.956Z,9.57
2018-03-01T18:14:43.457Z,8.37
2018-03-01T18:17:11.027Z,8.87
2018-03-01T18:19:38.534Z,8.83
2018-03-01T18:22:06.053Z,8.83
2018-03-01T18:24:33.608Z,8.83
2018-03-01T18:27:01.147Z,8.80
2018-03-01T18:29:28.785Z,8.00
2018-03-01T18:31:56.330Z,10.33
2018-03-01T18:34:23.842Z,8.33
2018-03-01T18:36:51.366Z,8.50
2018-03-01T18:39:19.040Z,7.53
2018-03-01T18:41:46.592Z,9.63
2018-03-01T18:44:14.156Z,8.80
2018-03-01T18:46:41.700Z,12.13
2018-03-01T18:49:09.195Z,9.30
2018-03-01T18:51:36.715Z,9.47
2018-03-01T18:54:04.275Z,8.30
2018-03-01T18:56:31.797Z,10.23
2018-03-01T18:58:59.324Z,10.10
2018-03-01T19:01:26.862Z,9.67
2018-03-01T19:03:54.425Z,10.07
2018-03-01T19:06:21.980Z,8.83
2018-03-01T19:08:49.526Z,9.47
2018-03-01T19:11:17.072Z,10.77
2018-03-01T19:13:44.657Z,10.90
2018-03-01T19:16:12.272Z,11.67
2018-03-01T19:18:39.844Z,10.20
2018-03-01T19:21:07.398Z,8.77
2018-03-01T19:23:34.955Z,10.90
2018-03-01T19:26:02.556Z,10.13
2018-03-01T19:28:30.118Z,12.00
2018-03-01T19:30:57.789Z,11.17
2018-03-01T19:33:25.335Z,12.40
2018-03-01T19:35:52.828Z,12.27
2018-03-01T19:38:20.421Z,11.33
2018-03-01T19:40:47.988Z,11.67
2018-03-01T19:43:15.525Z,11.77
2018-03-01T19:45:43.116Z,10.70
2018-03-01T19:48:10.731Z,10.63
2018-03-01T19:50:38.433Z,10.17
2018-03-01T19:53:05.990Z,12.53
2018-03-01T19:55:33.544Z,12.70
2018-03-01T19:58:01.107Z,10.97
2018-03-01T20:00:28.676Z,12.13
2018-03-01T20:02:56.204Z,11.77
2018-03-01T20:05:23.744Z,11.67
2018-03-01T20:07:51.237Z,13.40
2018-03-01T20:10:18.915Z,12.70
2018-03-01T20:12:46.501Z,14.00
2018-03-01T20:15:14.479Z,12.93
2018-03-01T20:17:42.031Z,13.17
2018-03-01T20:20:09.565Z,12.90
2018-03-01T20:22:37.090Z,13.73
2018-03-01T20:25:04.675Z,12.93
2018-03-01T20:27:32.214Z,14.43
2018-03-01T20:29:59.763Z,14.57
2018-03-01T20:32:27.337Z,12.90
2018-03-01T20:34:54.921Z,12.97
2018-03-01T20:37:22.433Z,14.07
2018-03-01T20:39:49.970Z,10.43
2018-03-01T20:42:17.564Z,12.37
2018-03-01T20:44:45.834Z,13.17
2018-03-01T20:47:13.550Z,14.07
2018-03-01T20:49:41.104Z,13.00
2018-03-01T20:52:08.625Z,13.33
2018-03-01T20:54:36.144Z,14.40
2018-03-01T20:57:03.671Z,13.17
2018-03-01T20:59:31.776Z,13.97
2018-03-01T21:01:59.312Z,14.00
2018-03-01T21:04:26.868Z,13.10
2018-03-01T21:06:54.424Z,13.50
2018-03-01T21:09:21.918Z,13.00
2018-03-01T21:11:49.755Z,14.20
2018-03-01T21:14:17.286Z,14.50
2018-03-01T21:16:44.784Z,13.13
2018-03-01T21:19:12.402Z,13.87
2018-03-01T21:21:39.963Z,14.60
2018-03-01T21:24:07.498Z,15.13
2018-03-01T21:26:35.203Z,15.13
2018-03-01T21:29:02.804Z,14.57
2018-03-01T21:31:30.375Z,15.20
2018-03-01T21:33:57.922Z,14.23
2018-03-01T21:36:25.451Z,14.77
2018-03-01T21:38:53.028Z,14.73
2018-03-01T21:41:20.624Z,15.13
2018-03-01T21:43:48.142Z,14.83
2018-03-01T21:46:15.796Z,14.10
2018-03-01T21:48:43.309Z,14.37
2018-03-01T21:51:10.954Z,14.07
2018-03-01T21:53:38.618Z,14.53
2018-03-01T21:56:06.249Z,15.40
2018-03-01T21:58:33.852Z,15.13
2018-03-01T22:01:01.397Z,16.77
2018-03-01T22:03:28.964Z,15.27
2018-03-01T22:05:56.510Z,13.70
2018-03-01T22:08:24.127Z,15.23
2018-03-01T22:10:51.765Z,15.97
2018-03-01T22:13:19.422Z,14.70
2018-03-01T22:15:47.020Z,14.70
2018-03-01T22:18:14.672Z,14.77
2018-03-01T22:20:42.616Z,15.83
2018-03-01T22:23:10.130Z,13.97
2018-03-01T22:25:37.629Z,16.00
2018-03-01T22:28:05.162Z,15.10
2018-03-01T22:30:32.724Z,15.60
2018-03-01T22:33:00.250Z,15.57
2018-03-01T22:35:27.851Z,17.17
2018-03-01T22:37:55.399Z,16.93
2018-03-01T22:40:23.045Z,16.37
2018-03-01T22:42:50.566Z,17.40
2018-03-01T22:45:18.112Z,15.67
2018-03-01T22:47:45.676Z,16.80
2018-03-01T22:50:13.237Z,16.20
2018-03-01T22:52:40.889Z,16.70
2018-03-01T22:55:08.435Z,14.13
2018-03-01T22:57:35.945Z,19.30
2018-03-01T23:00:03.528Z,15.43
2018-03-01T23:02:31.026Z,16.83
2018-03-01T23:04:58.620Z,15.57
2018-03-01T23:07:26.323Z,16.13
2018-03-01T23:09:53.851Z,16.80
2018-03-01T23:12:21.524Z,17.13
2018-03-01T23:14:49.044Z,18.07
2018-03-01T23:17:16.561Z,15.70
2018-03-01T23:19:44.147Z,17.83
2018-03-01T23:22:11.661Z,13.13
2018-03-01T23:24:39.187Z,17.40
2018-03-01T23:27:06.786Z,15.83
2018-03-01T23:29:34.294Z,15.67
2018-03-01T23:32:01.910Z,16.67
2018-03-01T23:34:29.459Z,16.07
2018-03-01T23:36:57.043Z,16.70
2018-03-01T23:39:24.580Z,18.50
2018-03-01T23:41:52.110Z,16.30
2018-03-01T23:44:19.642Z,15.50
2018-03-01T23:46:47.271Z,16.53
2018-03-01T23:49:14.825Z,17.20
2018-03-01T23:51:42.361Z,16.63
2018-03-01T23:54:09.913Z,18.27
2018-03-01T23:56:37.440Z,16.97
2018-03-01T23:59:04.981Z,17.37
